sensor_id;sensor_type;location;lat;lon;timestamp;temperature;humidity
41884;DHT22;27566;50.930;5.328;2023-08-24T00:00:38;21.50;64.60
41884;DHT22;27566;50.930;5.328;2023-08-24T00:03:04;21.50;64.30
41884;DHT22;27566;50.930;5.328;2023-08-24T00:05:32;21.50;64.10
41884;DHT22;27566;50.930;5.328;2023-08-24T00:07:58;21.60;64.00
41884;DHT22;27566;50.930;5.328;2023-08-24T00:10:23;21.60;63.90
41884;DHT22;27566;50.930;5.328;2023-08-24T00:12:49;21.60;63.80
41884;DHT22;27566;50.930;5.328;2023-08-24T00:15:15;21.70;63.90
41884;DHT22;27566;50.930;5.328;2023-08-24T00:17:41;21.60;63.70
41884;DHT22;27566;50.930;5.328;2023-08-24T00:20:07;21.70;63.90
41884;DHT22;27566;50.930;5.328;2023-08-24T00:22:39;21.60;64.10
41884;DHT22;27566;50.930;5.328;2023-08-24T00:25:09;21.60;64.30
41884;DHT22;27566;50.930;5.328;2023-08-24T00:27:35;21.60;64.50
41884;DHT22;27566;50.930;5.328;2023-08-24T00:30:06;21.60;64.70
41884;DHT22;27566;50.930;5.328;2023-08-24T00:32:33;21.60;65.00
41884;DHT22;27566;50.930;5.328;2023-08-24T00:35:01;21.50;65.20
41884;DHT22;27566;50.930;5.328;2023-08-24T00:37:27;21.40;65.70
41884;DHT22;27566;50.930;5.328;2023-08-24T00:39:54;21.40;66.00
41884;DHT22;27566;50.930;5.328;2023-08-24T00:42:21;21.30;65.90
41884;DHT22;27566;50.930;5.328;2023-08-24T00:44:48;21.30;66.40
41884;DHT22;27566;50.930;5.328;2023-08-24T00:47:16;21.20;66.80
41884;DHT22;27566;50.930;5.328;2023-08-24T00:49:42;21.20;67.10
41884;DHT22;27566;50.930;5.328;2023-08-24T00:52:08;21.20;67.20
41884;DHT22;27566;50.930;5.328;2023-08-24T00:54:36;21.20;67.30
41884;DHT22;27566;50.930;5.328;2023-08-24T00:57:02;21.10;67.50
41884;DHT22;27566;50.930;5.328;2023-08-24T00:59:28;21.10;67.70
41884;DHT22;27566;50.930;5.328;2023-08-24T01:01:55;21.10;67.70
41884;DHT22;27566;50.930;5.328;2023-08-24T01:04:22;21.10;67.90
41884;DHT22;27566;50.930;5.328;2023-08-24T01:06:48;21.10;67.90
41884;DHT22;27566;50.930;5.328;2023-08-24T01:09:14;21.10;68.10
41884;DHT22;27566;50.930;5.328;2023-08-24T01:11:45;21.10;67.90
41884;DHT22;27566;50.930;5.328;2023-08-24T01:17:01;21.20;68.00
41884;DHT22;27566;50.930;5.328;2023-08-24T01:19:43;21.20;67.80
41884;DHT22;27566;50.930;5.328;2023-08-24T01:24:53;21.30;67.70
41884;DHT22;27566;50.930;5.328;2023-08-24T01:27:24;21.30;67.40
41884;DHT22;27566;50.930;5.328;2023-08-24T01:29:51;21.20;67.70
41884;DHT22;27566;50.930;5.328;2023-08-24T01:32:18;21.30;67.80
41884;DHT22;27566;50.930;5.328;2023-08-24T01:34:44;21.30;67.80
41884;DHT22;27566;50.930;5.328;2023-08-24T01:37:10;21.30;67.70
41884;DHT22;27566;50.930;5.328;2023-08-24T01:39:44;21.20;67.60
41884;DHT22;27566;50.930;5.328;2023-08-24T01:42:17;21.30;67.80
41884;DHT22;27566;50.930;5.328;2023-08-24T01:44:49;21.30;67.80
41884;DHT22;27566;50.930;5.328;2023-08-24T01:47:17;21.30;67.80
41884;DHT22;27566;50.930;5.328;2023-08-24T01:49:43;21.30;67.80
41884;DHT22;27566;50.930;5.328;2023-08-24T01:52:10;21.30;67.80
41884;DHT22;27566;50.930;5.328;2023-08-24T01:54:36;21.30;67.70
41884;DHT22;27566;50.930;5.328;2023-08-24T01:57:04;21.30;67.70
41884;DHT22;27566;50.930;5.328;2023-08-24T01:59:31;21.40;67.60
41884;DHT22;27566;50.930;5.328;2023-08-24T02:01:58;21.40;67.40
41884;DHT22;27566;50.930;5.328;2023-08-24T02:04:24;21.50;67.20
41884;DHT22;27566;50.930;5.328;2023-08-24T02:06:50;21.50;66.90
41884;DHT22;27566;50.930;5.328;2023-08-24T02:09:16;21.50;66.80
41884;DHT22;27566;50.930;5.328;2023-08-24T02:11:41;21.60;66.80
41884;DHT22;27566;50.930;5.328;2023-08-24T02:14:07;21.60;66.60
41884;DHT22;27566;50.930;5.328;2023-08-24T02:16:33;21.60;66.50
41884;DHT22;27566;50.930;5.328;2023-08-24T02:19:01;21.60;66.50
41884;DHT22;27566;50.930;5.328;2023-08-24T02:21:27;21.60;66.20
41884;DHT22;27566;50.930;5.328;2023-08-24T02:23:53;21.60;66.10
41884;DHT22;27566;50.930;5.328;2023-08-24T02:26:19;21.60;66.00
41884;DHT22;27566;50.930;5.328;2023-08-24T02:28:46;21.60;65.90
41884;DHT22;27566;50.930;5.328;2023-08-24T02:31:12;21.60;65.90
41884;DHT22;27566;50.930;5.328;2023-08-24T02:33:38;21.60;65.60
41884;DHT22;27566;50.930;5.328;2023-08-24T02:36:04;21.70;65.40
41884;DHT22;27566;50.930;5.328;2023-08-24T02:38:30;21.70;65.40
41884;DHT22;27566;50.930;5.328;2023-08-24T02:41:04;21.70;65.20
41884;DHT22;27566;50.930;5.328;2023-08-24T02:43:31;21.80;65.10
41884;DHT22;27566;50.930;5.328;2023-08-24T02:46:04;21.90;64.70
41884;DHT22;27566;50.930;5.328;2023-08-24T02:48:31;21.90;64.80
41884;DHT22;27566;50.930;5.328;2023-08-24T02:50:58;22.00;65.20
41884;DHT22;27566;50.930;5.328;2023-08-24T02:53:24;22.00;65.50
41884;DHT22;27566;50.930;5.328;2023-08-24T02:55:51;22.10;65.60
41884;DHT22;27566;50.930;5.328;2023-08-24T02:58:16;22.10;66.00
41884;DHT22;27566;50.930;5.328;2023-08-24T03:00:42;22.10;66.60
41884;DHT22;27566;50.930;5.328;2023-08-24T03:03:08;22.10;67.10
41884;DHT22;27566;50.930;5.328;2023-08-24T03:05:34;22.10;67.70
41884;DHT22;27566;50.930;5.328;2023-08-24T03:08:01;22.10;68.30
41884;DHT22;27566;50.930;5.328;2023-08-24T03:10:30;22.00;69.20
41884;DHT22;27566;50.930;5.328;2023-08-24T03:12:56;21.90;69.40
41884;DHT22;27566;50.930;5.328;2023-08-24T03:15:22;21.90;69.80
41884;DHT22;27566;50.930;5.328;2023-08-24T03:17:49;21.80;70.20
41884;DHT22;27566;50.930;5.328;2023-08-24T03:20:15;21.70;70.50
41884;DHT22;27566;50.930;5.328;2023-08-24T03:22:41;21.80;71.10
41884;DHT22;27566;50.930;5.328;2023-08-24T03:25:07;21.60;71.50
41884;DHT22;27566;50.930;5.328;2023-08-24T03:27:33;21.50;72.60
41884;DHT22;27566;50.930;5.328;2023-08-24T03:29:59;21.50;72.10
41884;DHT22;27566;50.930;5.328;2023-08-24T03:32:25;21.50;72.60
41884;DHT22;27566;50.930;5.328;2023-08-24T03:34:50;21.50;73.00
41884;DHT22;27566;50.930;5.328;2023-08-24T03:37:17;21.50;73.30
41884;DHT22;27566;50.930;5.328;2023-08-24T03:39:42;21.50;73.60
41884;DHT22;27566;50.930;5.328;2023-08-24T03:42:08;21.40;73.70
41884;DHT22;27566;50.930;5.328;2023-08-24T03:44:34;21.40;74.00
41884;DHT22;27566;50.930;5.328;2023-08-24T03:47:00;21.50;74.20
41884;DHT22;27566;50.930;5.328;2023-08-24T03:49:26;21.60;74.30
41884;DHT22;27566;50.930;5.328;2023-08-24T03:51:55;21.60;74.20
41884;DHT22;27566;50.930;5.328;2023-08-24T03:54:21;21.60;74.30
41884;DHT22;27566;50.930;5.328;2023-08-24T03:56:47;21.60;74.30
41884;DHT22;27566;50.930;5.328;2023-08-24T03:59:13;21.60;74.40
41884;DHT22;27566;50.930;5.328;2023-08-24T04:01:39;21.60;74.40
41884;DHT22;27566;50.930;5.328;2023-08-24T04:04:05;21.70;74.30
41884;DHT22;27566;50.930;5.328;2023-08-24T04:06:31;21.60;74.20
41884;DHT22;27566;50.930;5.328;2023-08-24T04:08:57;21.60;74.20
41884;DHT22;27566;50.930;5.328;2023-08-24T04:11:23;21.60;74.00
41884;DHT22;27566;50.930;5.328;2023-08-24T04:13:49;21.60;74.00
41884;DHT22;27566;50.930;5.328;2023-08-24T04:16:15;21.50;74.00
41884;DHT22;27566;50.930;5.328;2023-08-24T04:18:41;21.40;74.10
41884;DHT22;27566;50.930;5.328;2023-08-24T04:21:07;21.30;74.20
41884;DHT22;27566;50.930;5.328;2023-08-24T04:23:33;21.30;74.40
41884;DHT22;27566;50.930;5.328;2023-08-24T04:25:59;21.20;74.50
41884;DHT22;27566;50.930;5.328;2023-08-24T04:28:25;21.20;74.70
41884;DHT22;27566;50.930;5.328;2023-08-24T04:30:54;21.10;74.70
41884;DHT22;27566;50.930;5.328;2023-08-24T04:33:24;21.00;74.90
41884;DHT22;27566;50.930;5.328;2023-08-24T04:35:50;21.00;75.00
41884;DHT22;27566;50.930;5.328;2023-08-24T04:38:16;20.90;75.20
41884;DHT22;27566;50.930;5.328;2023-08-24T04:40:50;20.80;75.50
41884;DHT22;27566;50.930;5.328;2023-08-24T04:43:18;20.80;76.00
41884;DHT22;27566;50.930;5.328;2023-08-24T04:45:53;20.80;76.20
41884;DHT22;27566;50.930;5.328;2023-08-24T04:48:23;20.70;76.40
41884;DHT22;27566;50.930;5.328;2023-08-24T04:50:50;20.70;76.70
41884;DHT22;27566;50.930;5.328;2023-08-24T04:53:20;20.70;76.80
41884;DHT22;27566;50.930;5.328;2023-08-24T04:55:49;20.70;77.10
41884;DHT22;27566;50.930;5.328;2023-08-24T04:58:15;20.60;77.20
41884;DHT22;27566;50.930;5.328;2023-08-24T05:00:42;20.60;77.50
41884;DHT22;27566;50.930;5.328;2023-08-24T05:03:08;20.60;77.70
41884;DHT22;27566;50.930;5.328;2023-08-24T05:05:35;20.60;78.00
41884;DHT22;27566;50.930;5.328;2023-08-24T05:08:04;20.60;78.00
41884;DHT22;27566;50.930;5.328;2023-08-24T05:10:32;20.50;78.10
41884;DHT22;27566;50.930;5.328;2023-08-24T05:12:59;20.60;78.50
41884;DHT22;27566;50.930;5.328;2023-08-24T05:15:26;20.50;78.70
41884;DHT22;27566;50.930;5.328;2023-08-24T05:17:52;20.60;78.70
41884;DHT22;27566;50.930;5.328;2023-08-24T05:20:21;20.60;78.80
41884;DHT22;27566;50.930;5.328;2023-08-24T05:22:47;20.70;78.60
41884;DHT22;27566;50.930;5.328;2023-08-24T05:25:13;20.80;78.40
41884;DHT22;27566;50.930;5.328;2023-08-24T05:27:42;20.90;78.40
41884;DHT22;27566;50.930;5.328;2023-08-24T05:30:08;21.00;78.40
41884;DHT22;27566;50.930;5.328;2023-08-24T05:32:35;21.50;77.50
41884;DHT22;27566;50.930;5.328;2023-08-24T05:35:05;22.10;75.50
41884;DHT22;27566;50.930;5.328;2023-08-24T05:37:31;22.50;73.80
41884;DHT22;27566;50.930;5.328;2023-08-24T05:39:57;22.50;73.50
41884;DHT22;27566;50.930;5.328;2023-08-24T05:42:23;22.90;72.20
41884;DHT22;27566;50.930;5.328;2023-08-24T05:44:49;23.20;71.10
41884;DHT22;27566;50.930;5.328;2023-08-24T05:47:15;23.40;69.60
41884;DHT22;27566;50.930;5.328;2023-08-24T05:49:41;23.60;69.40
41884;DHT22;27566;50.930;5.328;2023-08-24T05:52:07;24.00;68.30
41884;DHT22;27566;50.930;5.328;2023-08-24T05:54:35;24.70;66.60
41884;DHT22;27566;50.930;5.328;2023-08-24T05:57:01;25.10;64.40
41884;DHT22;27566;50.930;5.328;2023-08-24T05:59:28;25.00;64.50
41884;DHT22;27566;50.930;5.328;2023-08-24T06:01:54;24.70;65.20
41884;DHT22;27566;50.930;5.328;2023-08-24T06:04:20;24.70;65.40
41884;DHT22;27566;50.930;5.328;2023-08-24T06:06:46;24.90;64.90
41884;DHT22;27566;50.930;5.328;2023-08-24T06:09:12;25.10;64.70
41884;DHT22;27566;50.930;5.328;2023-08-24T06:11:38;25.20;64.20
41884;DHT22;27566;50.930;5.328;2023-08-24T06:14:04;25.30;63.80
41884;DHT22;27566;50.930;5.328;2023-08-24T06:16:30;25.40;63.80
41884;DHT22;27566;50.930;5.328;2023-08-24T06:18:56;25.30;63.70
41884;DHT22;27566;50.930;5.328;2023-08-24T06:21:21;25.10;64.00
41884;DHT22;27566;50.930;5.328;2023-08-24T06:23:47;24.90;64.40
41884;DHT22;27566;50.930;5.328;2023-08-24T06:26:14;24.70;64.80
41884;DHT22;27566;50.930;5.328;2023-08-24T06:28:40;24.60;65.60
41884;DHT22;27566;50.930;5.328;2023-08-24T06:31:06;24.60;66.20
41884;DHT22;27566;50.930;5.328;2023-08-24T06:33:35;24.50;66.20
41884;DHT22;27566;50.930;5.328;2023-08-24T06:36:02;24.40;66.40
41884;DHT22;27566;50.930;5.328;2023-08-24T06:38:31;24.40;66.80
41884;DHT22;27566;50.930;5.328;2023-08-24T06:41:00;24.40;67.00
41884;DHT22;27566;50.930;5.328;2023-08-24T06:43:27;24.40;67.40
41884;DHT22;27566;50.930;5.328;2023-08-24T06:45:54;24.40;67.50
41884;DHT22;27566;50.930;5.328;2023-08-24T06:48:21;24.50;67.50
41884;DHT22;27566;50.930;5.328;2023-08-24T06:50:47;24.50;67.50
41884;DHT22;27566;50.930;5.328;2023-08-24T06:53:13;24.60;67.60
41884;DHT22;27566;50.930;5.328;2023-08-24T06:55:40;24.70;67.60
41884;DHT22;27566;50.930;5.328;2023-08-24T06:58:06;24.80;67.30
41884;DHT22;27566;50.930;5.328;2023-08-24T07:00:33;25.00;67.50
41884;DHT22;27566;50.930;5.328;2023-08-24T07:02:59;25.10;67.10
41884;DHT22;27566;50.930;5.328;2023-08-24T07:05:25;25.40;66.70
41884;DHT22;27566;50.930;5.328;2023-08-24T07:07:54;25.60;65.80
41884;DHT22;27566;50.930;5.328;2023-08-24T07:10:20;25.90;65.30
41884;DHT22;27566;50.930;5.328;2023-08-24T07:12:46;26.00;64.80
41884;DHT22;27566;50.930;5.328;2023-08-24T07:15:13;26.20;64.20
41884;DHT22;27566;50.930;5.328;2023-08-24T07:17:39;26.40;63.50
41884;DHT22;27566;50.930;5.328;2023-08-24T07:20:05;26.50;62.90
41884;DHT22;27566;50.930;5.328;2023-08-24T07:22:32;26.60;62.60
41884;DHT22;27566;50.930;5.328;2023-08-24T07:24:58;26.70;62.30
41884;DHT22;27566;50.930;5.328;2023-08-24T07:27:24;26.80;62.10
41884;DHT22;27566;50.930;5.328;2023-08-24T07:29:50;26.90;61.80
41884;DHT22;27566;50.930;5.328;2023-08-24T07:32:15;27.00;61.70
41884;DHT22;27566;50.930;5.328;2023-08-24T07:34:41;27.10;61.60
41884;DHT22;27566;50.930;5.328;2023-08-24T07:37:07;27.20;62.10
41884;DHT22;27566;50.930;5.328;2023-08-24T07:39:33;27.40;61.10
41884;DHT22;27566;50.930;5.328;2023-08-24T07:41:59;27.60;60.50
41884;DHT22;27566;50.930;5.328;2023-08-24T07:44:25;27.70;59.60
41884;DHT22;27566;50.930;5.328;2023-08-24T07:46:52;27.90;59.10
41884;DHT22;27566;50.930;5.328;2023-08-24T07:49:17;28.00;58.50
41884;DHT22;27566;50.930;5.328;2023-08-24T07:51:43;28.20;58.50
41884;DHT22;27566;50.930;5.328;2023-08-24T07:54:10;28.50;58.00
41884;DHT22;27566;50.930;5.328;2023-08-24T07:56:36;28.80;57.30
41884;DHT22;27566;50.930;5.328;2023-08-24T07:59:02;29.10;56.70
41884;DHT22;27566;50.930;5.328;2023-08-24T08:01:28;29.40;56.20
41884;DHT22;27566;50.930;5.328;2023-08-24T08:03:54;29.60;55.30
41884;DHT22;27566;50.930;5.328;2023-08-24T08:06:20;29.80;55.00
41884;DHT22;27566;50.930;5.328;2023-08-24T08:08:47;30.00;54.30
41884;DHT22;27566;50.930;5.328;2023-08-24T08:11:15;30.30;54.50
41884;DHT22;27566;50.930;5.328;2023-08-24T08:13:41;30.40;53.30
41884;DHT22;27566;50.930;5.328;2023-08-24T08:16:07;30.60;53.00
41884;DHT22;27566;50.930;5.328;2023-08-24T08:18:35;30.60;52.60
41884;DHT22;27566;50.930;5.328;2023-08-24T08:21:03;30.70;52.00
41884;DHT22;27566;50.930;5.328;2023-08-24T08:23:33;30.80;51.50
41884;DHT22;27566;50.930;5.328;2023-08-24T08:25:59;31.00;51.50
41884;DHT22;27566;50.930;5.328;2023-08-24T08:28:25;31.20;51.40
41884;DHT22;27566;50.930;5.328;2023-08-24T08:30:51;31.30;50.90
41884;DHT22;27566;50.930;5.328;2023-08-24T08:33:17;31.30;50.20
41884;DHT22;27566;50.930;5.328;2023-08-24T08:35:45;31.30;49.90
41884;DHT22;27566;50.930;5.328;2023-08-24T08:38:11;31.50;50.00
41884;DHT22;27566;50.930;5.328;2023-08-24T08:40:37;31.50;49.70
41884;DHT22;27566;50.930;5.328;2023-08-24T08:43:03;31.50;49.70
41884;DHT22;27566;50.930;5.328;2023-08-24T08:45:29;31.50;49.70
41884;DHT22;27566;50.930;5.328;2023-08-24T08:47:59;31.60;49.50
41884;DHT22;27566;50.930;5.328;2023-08-24T08:50:27;31.70;49.40
41884;DHT22;27566;50.930;5.328;2023-08-24T08:52:53;31.70;49.10
41884;DHT22;27566;50.930;5.328;2023-08-24T08:55:19;31.70;49.10
41884;DHT22;27566;50.930;5.328;2023-08-24T08:57:48;31.80;49.00
41884;DHT22;27566;50.930;5.328;2023-08-24T09:00:16;31.90;48.80
41884;DHT22;27566;50.930;5.328;2023-08-24T09:02:47;32.00;48.30
41884;DHT22;27566;50.930;5.328;2023-08-24T09:05:15;32.10;48.40
41884;DHT22;27566;50.930;5.328;2023-08-24T09:07:41;32.10;48.10
41884;DHT22;27566;50.930;5.328;2023-08-24T09:10:08;32.20;48.10
41884;DHT22;27566;50.930;5.328;2023-08-24T09:12:34;32.30;48.50
41884;DHT22;27566;50.930;5.328;2023-08-24T09:15:07;32.30;48.10
41884;DHT22;27566;50.930;5.328;2023-08-24T09:17:33;32.30;47.90
41884;DHT22;27566;50.930;5.328;2023-08-24T09:20:05;32.40;47.90
41884;DHT22;27566;50.930;5.328;2023-08-24T09:22:36;32.50;47.60
41884;DHT22;27566;50.930;5.328;2023-08-24T09:25:03;32.60;47.80
41884;DHT22;27566;50.930;5.328;2023-08-24T09:27:30;32.60;47.40
41884;DHT22;27566;50.930;5.328;2023-08-24T09:29:57;32.60;47.50
41884;DHT22;27566;50.930;5.328;2023-08-24T09:32:28;32.70;47.40
41884;DHT22;27566;50.930;5.328;2023-08-24T09:34:54;32.80;46.90
41884;DHT22;27566;50.930;5.328;2023-08-24T09:37:20;32.80;46.90
41884;DHT22;27566;50.930;5.328;2023-08-24T09:39:46;32.80;47.00
41884;DHT22;27566;50.930;5.328;2023-08-24T09:42:12;32.90;46.90
41884;DHT22;27566;50.930;5.328;2023-08-24T09:44:43;33.00;47.30
41884;DHT22;27566;50.930;5.328;2023-08-24T09:47:11;33.00;47.10
41884;DHT22;27566;50.930;5.328;2023-08-24T09:49:37;33.10;47.20
41884;DHT22;27566;50.930;5.328;2023-08-24T09:52:07;33.00;47.50
41884;DHT22;27566;50.930;5.328;2023-08-24T09:54:37;33.00;47.30
41884;DHT22;27566;50.930;5.328;2023-08-24T09:57:05;33.00;47.50
41884;DHT22;27566;50.930;5.328;2023-08-24T09:59:34;33.00;47.50
41884;DHT22;27566;50.930;5.328;2023-08-24T10:02:02;32.90;47.90
41884;DHT22;27566;50.930;5.328;2023-08-24T10:04:34;32.80;48.00
41884;DHT22;27566;50.930;5.328;2023-08-24T10:07:06;32.70;47.90
41884;DHT22;27566;50.930;5.328;2023-08-24T10:09:39;32.50;48.80
41884;DHT22;27566;50.930;5.328;2023-08-24T10:12:07;32.30;49.10
41884;DHT22;27566;50.930;5.328;2023-08-24T10:15:13;32.10;49.60
41884;DHT22;27566;50.930;5.328;2023-08-24T10:17:38;31.70;50.20
41884;DHT22;27566;50.930;5.328;2023-08-24T10:20:05;31.20;51.10
41884;DHT22;27566;50.930;5.328;2023-08-24T10:22:35;30.80;52.40
41884;DHT22;27566;50.930;5.328;2023-08-24T10:25:02;30.20;53.90
41884;DHT22;27566;50.930;5.328;2023-08-24T10:27:28;29.70;55.10
41884;DHT22;27566;50.930;5.328;2023-08-24T10:29:54;29.30;57.20
41884;DHT22;27566;50.930;5.328;2023-08-24T10:32:21;28.80;59.70
41884;DHT22;27566;50.930;5.328;2023-08-24T10:34:47;28.40;61.20
41884;DHT22;27566;50.930;5.328;2023-08-24T10:37:13;28.10;62.70
41884;DHT22;27566;50.930;5.328;2023-08-24T10:39:46;27.80;63.50
41884;DHT22;27566;50.930;5.328;2023-08-24T10:42:13;27.50;64.40
41884;DHT22;27566;50.930;5.328;2023-08-24T10:44:43;27.20;64.70
41884;DHT22;27566;50.930;5.328;2023-08-24T10:49:42;26.80;66.30
41884;DHT22;27566;50.930;5.328;2023-08-24T10:52:19;26.60;67.20
41884;DHT22;27566;50.930;5.328;2023-08-24T10:54:47;26.30;68.20
41884;DHT22;27566;50.930;5.328;2023-08-24T10:57:26;26.00;70.20
41884;DHT22;27566;50.930;5.328;2023-08-24T11:00:01;25.70;71.40
41884;DHT22;27566;50.930;5.328;2023-08-24T11:05:19;25.30;74.20
41884;DHT22;27566;50.930;5.328;2023-08-24T11:07:51;25.10;75.20
41884;DHT22;27566;50.930;5.328;2023-08-24T11:10:17;24.90;76.20
41884;DHT22;27566;50.930;5.328;2023-08-24T11:13:05;24.80;77.90
41884;DHT22;27566;50.930;5.328;2023-08-24T11:15:38;24.70;78.60
41884;DHT22;27566;50.930;5.328;2023-08-24T11:18:23;24.70;79.80
41884;DHT22;27566;50.930;5.328;2023-08-24T11:21:02;24.70;79.80
41884;DHT22;27566;50.930;5.328;2023-08-24T11:23:28;24.90;79.60
41884;DHT22;27566;50.930;5.328;2023-08-24T11:25:56;25.00;79.50
41884;DHT22;27566;50.930;5.328;2023-08-24T11:28:24;25.20;79.50
41884;DHT22;27566;50.930;5.328;2023-08-24T11:30:51;25.40;79.00
41884;DHT22;27566;50.930;5.328;2023-08-24T11:33:27;25.50;78.50
41884;DHT22;27566;50.930;5.328;2023-08-24T11:35:55;25.60;77.20
41884;DHT22;27566;50.930;5.328;2023-08-24T11:38:21;25.80;77.10
41884;DHT22;27566;50.930;5.328;2023-08-24T11:40:47;26.00;75.90
41884;DHT22;27566;50.930;5.328;2023-08-24T11:43:26;26.20;75.30
41884;DHT22;27566;50.930;5.328;2023-08-24T11:45:54;26.40;75.40
41884;DHT22;27566;50.930;5.328;2023-08-24T11:48:24;26.60;74.90
41884;DHT22;27566;50.930;5.328;2023-08-24T11:50:51;26.80;73.90
41884;DHT22;27566;50.930;5.328;2023-08-24T11:53:22;27.00;73.10
41884;DHT22;27566;50.930;5.328;2023-08-24T11:55:54;27.20;71.00
41884;DHT22;27566;50.930;5.328;2023-08-24T11:58:20;27.30;70.50
41884;DHT22;27566;50.930;5.328;2023-08-24T12:00:46;27.50;70.80
41884;DHT22;27566;50.930;5.328;2023-08-24T12:03:13;27.80;70.30
41884;DHT22;27566;50.930;5.328;2023-08-24T12:05:41;28.20;70.60
41884;DHT22;27566;50.930;5.328;2023-08-24T12:08:11;28.50;67.60
41884;DHT22;27566;50.930;5.328;2023-08-24T12:10:47;28.90;67.30
41884;DHT22;27566;50.930;5.328;2023-08-24T12:13:13;29.20;66.00
41884;DHT22;27566;50.930;5.328;2023-08-24T12:15:40;29.40;65.40
41884;DHT22;27566;50.930;5.328;2023-08-24T12:18:13;29.50;64.10
41884;DHT22;27566;50.930;5.328;2023-08-24T12:20:42;29.50;63.80
41884;DHT22;27566;50.930;5.328;2023-08-24T12:23:09;29.30;63.40
41884;DHT22;27566;50.930;5.328;2023-08-24T12:25:42;29.10;63.30
41884;DHT22;27566;50.930;5.328;2023-08-24T12:28:17;28.90;62.70
41884;DHT22;27566;50.930;5.328;2023-08-24T12:30:50;28.60;62.70
41884;DHT22;27566;50.930;5.328;2023-08-24T12:33:27;28.40;64.00
41884;DHT22;27566;50.930;5.328;2023-08-24T12:35:55;28.40;64.70
41884;DHT22;27566;50.930;5.328;2023-08-24T12:38:22;28.30;64.80
41884;DHT22;27566;50.930;5.328;2023-08-24T12:40:48;28.20;64.50
41884;DHT22;27566;50.930;5.328;2023-08-24T12:43:14;28.10;65.00
41884;DHT22;27566;50.930;5.328;2023-08-24T12:45:41;28.00;65.50
41884;DHT22;27566;50.930;5.328;2023-08-24T12:48:07;27.90;65.40
41884;DHT22;27566;50.930;5.328;2023-08-24T12:50:38;27.80;65.70
41884;DHT22;27566;50.930;5.328;2023-08-24T12:53:05;27.60;66.40
41884;DHT22;27566;50.930;5.328;2023-08-24T12:55:36;27.60;66.80
41884;DHT22;27566;50.930;5.328;2023-08-24T12:58:02;27.50;67.20
41884;DHT22;27566;50.930;5.328;2023-08-24T13:00:29;27.30;67.30
41884;DHT22;27566;50.930;5.328;2023-08-24T13:02:55;27.20;67.50
41884;DHT22;27566;50.930;5.328;2023-08-24T13:05:21;27.00;67.50
41884;DHT22;27566;50.930;5.328;2023-08-24T13:07:48;26.90;68.60
41884;DHT22;27566;50.930;5.328;2023-08-24T13:10:14;26.80;68.80
41884;DHT22;27566;50.930;5.328;2023-08-24T13:12:40;26.60;69.00
41884;DHT22;27566;50.930;5.328;2023-08-24T13:15:06;26.50;69.20
41884;DHT22;27566;50.930;5.328;2023-08-24T13:17:32;26.40;69.40
41884;DHT22;27566;50.930;5.328;2023-08-24T13:19:58;26.30;69.30
41884;DHT22;27566;50.930;5.328;2023-08-24T13:22:24;26.10;69.90
41884;DHT22;27566;50.930;5.328;2023-08-24T13:24:50;26.00;70.60
41884;DHT22;27566;50.930;5.328;2023-08-24T13:27:16;25.80;70.70
41884;DHT22;27566;50.930;5.328;2023-08-24T13:29:42;25.70;71.10
41884;DHT22;27566;50.930;5.328;2023-08-24T13:32:08;25.60;71.40
41884;DHT22;27566;50.930;5.328;2023-08-24T13:34:35;25.50;71.60
41884;DHT22;27566;50.930;5.328;2023-08-24T13:37:04;25.40;72.00
41884;DHT22;27566;50.930;5.328;2023-08-24T13:39:30;25.20;72.30
41884;DHT22;27566;50.930;5.328;2023-08-24T13:42:00;25.00;73.10
41884;DHT22;27566;50.930;5.328;2023-08-24T13:44:26;24.80;73.80
41884;DHT22;27566;50.930;5.328;2023-08-24T13:46:52;24.60;74.70
41884;DHT22;27566;50.930;5.328;2023-08-24T13:49:19;24.50;75.40
41884;DHT22;27566;50.930;5.328;2023-08-24T13:51:45;24.30;76.10
41884;DHT22;27566;50.930;5.328;2023-08-24T13:54:18;24.20;76.70
41884;DHT22;27566;50.930;5.328;2023-08-24T13:56:46;24.10;77.00
41884;DHT22;27566;50.930;5.328;2023-08-24T13:59:13;24.00;77.20
41884;DHT22;27566;50.930;5.328;2023-08-24T14:01:40;23.90;77.40
41884;DHT22;27566;50.930;5.328;2023-08-24T14:04:06;23.80;77.40
41884;DHT22;27566;50.930;5.328;2023-08-24T14:06:33;23.70;77.90
41884;DHT22;27566;50.930;5.328;2023-08-24T14:09:06;23.70;78.00
41884;DHT22;27566;50.930;5.328;2023-08-24T14:11:32;23.60;77.90
41884;DHT22;27566;50.930;5.328;2023-08-24T14:13:59;23.60;77.50
41884;DHT22;27566;50.930;5.328;2023-08-24T14:16:25;23.60;77.60
41884;DHT22;27566;50.930;5.328;2023-08-24T14:18:52;23.60;77.60
41884;DHT22;27566;50.930;5.328;2023-08-24T14:21:19;23.50;77.90
41884;DHT22;27566;50.930;5.328;2023-08-24T14:23:49;23.50;77.60
41884;DHT22;27566;50.930;5.328;2023-08-24T14:26:15;23.50;77.40
41884;DHT22;27566;50.930;5.328;2023-08-24T14:31:19;23.50;76.70
41884;DHT22;27566;50.930;5.328;2023-08-24T14:33:45;23.60;76.50
41884;DHT22;27566;50.930;5.328;2023-08-24T14:36:11;23.60;76.30
41884;DHT22;27566;50.930;5.328;2023-08-24T14:38:41;23.70;76.00
41884;DHT22;27566;50.930;5.328;2023-08-24T14:41:10;23.70;75.90
41884;DHT22;27566;50.930;5.328;2023-08-24T14:43:37;23.80;75.70
41884;DHT22;27566;50.930;5.328;2023-08-24T14:46:03;23.80;75.50
41884;DHT22;27566;50.930;5.328;2023-08-24T14:48:29;23.80;75.60
41884;DHT22;27566;50.930;5.328;2023-08-24T14:50:56;23.80;75.60
41884;DHT22;27566;50.930;5.328;2023-08-24T14:53:23;23.80;76.10
41884;DHT22;27566;50.930;5.328;2023-08-24T14:55:49;23.80;76.40
41884;DHT22;27566;50.930;5.328;2023-08-24T14:58:15;23.80;76.30
41884;DHT22;27566;50.930;5.328;2023-08-24T15:00:42;23.80;76.00
41884;DHT22;27566;50.930;5.328;2023-08-24T15:03:10;23.90;75.90
41884;DHT22;27566;50.930;5.328;2023-08-24T15:05:44;23.90;76.00
41884;DHT22;27566;50.930;5.328;2023-08-24T15:08:11;24.00;76.00
41884;DHT22;27566;50.930;5.328;2023-08-24T15:10:38;24.00;75.90
41884;DHT22;27566;50.930;5.328;2023-08-24T15:13:04;24.10;75.80
41884;DHT22;27566;50.930;5.328;2023-08-24T15:15:34;24.30;75.50
41884;DHT22;27566;50.930;5.328;2023-08-24T15:18:00;24.40;74.80
41884;DHT22;27566;50.930;5.328;2023-08-24T15:20:26;24.70;74.00
41884;DHT22;27566;50.930;5.328;2023-08-24T15:22:52;24.90;73.50
41884;DHT22;27566;50.930;5.328;2023-08-24T15:25:18;25.20;72.70
41884;DHT22;27566;50.930;5.328;2023-08-24T15:27:44;25.40;71.90
41884;DHT22;27566;50.930;5.328;2023-08-24T15:30:10;25.50;71.40
41884;DHT22;27566;50.930;5.328;2023-08-24T15:32:36;25.50;70.90
41884;DHT22;27566;50.930;5.328;2023-08-24T15:35:02;25.60;70.60
41884;DHT22;27566;50.930;5.328;2023-08-24T15:37:30;25.70;70.00
41884;DHT22;27566;50.930;5.328;2023-08-24T15:39:56;25.80;69.60
41884;DHT22;27566;50.930;5.328;2023-08-24T15:42:23;25.90;69.10
41884;DHT22;27566;50.930;5.328;2023-08-24T15:44:49;26.00;68.60